Garneill, Montana
Current Conditions -  °F | °C
As of 10:54 AM on Thursday 27 Nov 2014 (Local Time) from KLWT Reporting Station
Broken Clouds Broken Clouds  
Wind Chill:   Ceiling: 11000
Heat Index:   Visibility: 10mi
Dew Point: -1°   Wind: 16mph
Humidity: 52%   Direction: 240°WSW
Pressure: 29.85"   Gusts: NA
Location:  46.75°N, 109.75°W
Report Text: KLWT 271754Z AUTO 24014KT 10SM BKN110 09/M01 A2985 RMK AO2 SLP120 T00891006 10089 20050 56001
Loading
Personal Weather Stations






























Interactive Weather Map New forecast layout! Learn more

10-Day Weather Forecast

Advertisements
Track Severe Weather on mobile